sensor_id;sensor_type;location;lat;lon;timestamp;P1;durP1;ratioP1;P2;durP2;ratioP2
57889;SDS011;43707;50.184;18.966;2023-03-31T03:08:41;1.50;;;0.30;;
57889;SDS011;43707;50.184;18.966;2023-03-31T03:19:59;3.50;;;0.20;;
57889;SDS011;43707;50.184;18.966;2023-03-31T03:22:25;1.30;;;0.20;;
57889;SDS011;43707;50.184;18.966;2023-03-31T03:24:50;0.10;;;0.10;;
57889;SDS011;43707;50.184;18.966;2023-03-31T03:27:18;0.10;;;0.10;;
57889;SDS011;43707;50.184;18.966;2023-03-31T03:29:46;0.30;;;0.30;;
57889;SDS011;43707;50.184;18.966;2023-03-31T03:32:12;0.10;;;0.10;;
57889;SDS011;43707;50.184;18.966;2023-03-31T03:34:37;0.20;;;0.20;;
57889;SDS011;43707;50.184;18.966;2023-03-31T03:37:03;0.20;;;0.20;;
57889;SDS011;43707;50.184;18.966;2023-03-31T03:39:28;1.10;;;0.30;;
57889;SDS011;43707;50.184;18.966;2023-03-31T03:41:54;2.70;;;0.40;;
57889;SDS011;43707;50.184;18.966;2023-03-31T03:44:19;0.20;;;0.20;;
57889;SDS011;43707;50.184;18.966;2023-03-31T03:46:45;0.10;;;0.10;;
57889;SDS011;43707;50.184;18.966;2023-03-31T03:49:10;0.50;;;0.20;;
57889;SDS011;43707;50.184;18.966;2023-03-31T03:51:36;0.30;;;0.30;;
57889;SDS011;43707;50.184;18.966;2023-03-31T03:54:01;1.10;;;0.30;;
57889;SDS011;43707;50.184;18.966;2023-03-31T03:56:27;3.50;;;0.30;;
57889;SDS011;43707;50.184;18.966;2023-03-31T03:58:52;2.00;;;0.30;;
57889;SDS011;43707;50.184;18.966;2023-03-31T04:01:17;0.70;;;0.40;;
57889;SDS011;43707;50.184;18.966;2023-03-31T04:03:43;1.10;;;0.30;;
57889;SDS011;43707;50.184;18.966;2023-03-31T04:06:09;0.60;;;0.40;;
57889;SDS011;43707;50.184;18.966;2023-03-31T04:08:34;3.40;;;0.30;;
57889;SDS011;43707;50.184;18.966;2023-03-31T04:11:01;0.50;;;0.40;;
57889;SDS011;43707;50.184;18.966;2023-03-31T04:13:27;0.40;;;0.30;;
57889;SDS011;43707;50.184;18.966;2023-03-31T04:15:52;18.30;;;0.50;;
57889;SDS011;43707;50.184;18.966;2023-03-31T04:18:18;6.10;;;0.50;;
57889;SDS011;43707;50.184;18.966;2023-03-31T04:20:50;0.70;;;0.40;;
57889;SDS011;43707;50.184;18.966;2023-03-31T04:23:32;0.70;;;0.50;;
57889;SDS011;43707;50.184;18.966;2023-03-31T04:25:58;1.60;;;0.40;;
57889;SDS011;43707;50.184;18.966;2023-03-31T04:28:24;1.00;;;0.40;;
57889;SDS011;43707;50.184;18.966;2023-03-31T04:30:53;0.60;;;0.40;;
57889;SDS011;43707;50.184;18.966;2023-03-31T04:33:19;0.60;;;0.40;;
57889;SDS011;43707;50.184;18.966;2023-03-31T04:35:45;1.00;;;0.60;;
57889;SDS011;43707;50.184;18.966;2023-03-31T04:38:14;1.00;;;0.50;;
57889;SDS011;43707;50.184;18.966;2023-03-31T04:40:43;1.00;;;0.50;;
57889;SDS011;43707;50.184;18.966;2023-03-31T04:43:09;0.80;;;0.50;;
57889;SDS011;43707;50.184;18.966;2023-03-31T04:45:35;0.70;;;0.50;;
57889;SDS011;43707;50.184;18.966;2023-03-31T04:48:00;1.90;;;0.40;;
57889;SDS011;43707;50.184;18.966;2023-03-31T04:50:25;0.60;;;0.40;;
57889;SDS011;43707;50.184;18.966;2023-03-31T04:52:52;1.30;;;0.40;;
57889;SDS011;43707;50.184;18.966;2023-03-31T04:55:17;0.60;;;0.40;;
57889;SDS011;43707;50.184;18.966;2023-03-31T04:57:43;0.50;;;0.50;;
57889;SDS011;43707;50.184;18.966;2023-03-31T05:00:08;1.20;;;0.50;;
57889;SDS011;43707;50.184;18.966;2023-03-31T05:02:35;0.80;;;0.50;;
57889;SDS011;43707;50.184;18.966;2023-03-31T05:05:00;1.00;;;0.50;;
57889;SDS011;43707;50.184;18.966;2023-03-31T05:07:25;1.00;;;0.90;;
57889;SDS011;43707;50.184;18.966;2023-03-31T05:09:51;1.00;;;0.60;;
57889;SDS011;43707;50.184;18.966;2023-03-31T05:12:16;1.30;;;1.10;;
57889;SDS011;43707;50.184;18.966;2023-03-31T05:14:42;1.60;;;1.40;;
57889;SDS011;43707;50.184;18.966;2023-03-31T05:17:07;1.60;;;1.30;;
57889;SDS011;43707;50.184;18.966;2023-03-31T05:19:32;2.00;;;1.10;;
57889;SDS011;43707;50.184;18.966;2023-03-31T05:21:58;1.20;;;0.90;;
57889;SDS011;43707;50.184;18.966;2023-03-31T05:24:23;1.00;;;0.90;;
57889;SDS011;43707;50.184;18.966;2023-03-31T05:26:49;1.20;;;0.90;;
57889;SDS011;43707;50.184;18.966;2023-03-31T05:29:19;0.80;;;0.70;;
57889;SDS011;43707;50.184;18.966;2023-03-31T05:31:44;0.60;;;0.50;;
57889;SDS011;43707;50.184;18.966;2023-03-31T05:34:11;1.60;;;0.40;;
57889;SDS011;43707;50.184;18.966;2023-03-31T05:36:37;1.10;;;0.50;;
57889;SDS011;43707;50.184;18.966;2023-03-31T05:39:03;0.70;;;0.60;;
57889;SDS011;43707;50.184;18.966;2023-03-31T05:41:29;0.60;;;0.40;;
57889;SDS011;43707;50.184;18.966;2023-03-31T05:43:55;1.10;;;0.40;;
57889;SDS011;43707;50.184;18.966;2023-03-31T05:46:20;1.50;;;0.50;;
57889;SDS011;43707;50.184;18.966;2023-03-31T05:48:45;0.60;;;0.40;;
57889;SDS011;43707;50.184;18.966;2023-03-31T05:51:11;0.30;;;0.30;;
57889;SDS011;43707;50.184;18.966;2023-03-31T05:53:36;0.80;;;0.40;;
57889;SDS011;43707;50.184;18.966;2023-03-31T05:56:02;1.70;;;0.30;;
57889;SDS011;43707;50.184;18.966;2023-03-31T05:58:32;3.70;;;0.50;;
57889;SDS011;43707;50.184;18.966;2023-03-31T06:01:06;0.50;;;0.30;;
57889;SDS011;43707;50.184;18.966;2023-03-31T06:03:37;0.30;;;0.30;;
57889;SDS011;43707;50.184;18.966;2023-03-31T06:06:05;0.30;;;0.30;;
57889;SDS011;43707;50.184;18.966;2023-03-31T06:08:32;0.20;;;0.10;;
57889;SDS011;43707;50.184;18.966;2023-03-31T06:11:05;0.60;;;0.40;;
57889;SDS011;43707;50.184;18.966;2023-03-31T06:13:31;0.50;;;0.40;;
57889;SDS011;43707;50.184;18.966;2023-03-31T06:15:58;14.60;;;0.70;;
57889;SDS011;43707;50.184;18.966;2023-03-31T06:18:25;2.00;;;0.30;;
57889;SDS011;43707;50.184;18.966;2023-03-31T06:20:52;0.70;;;0.30;;
57889;SDS011;43707;50.184;18.966;2023-03-31T06:23:19;0.70;;;0.40;;
57889;SDS011;43707;50.184;18.966;2023-03-31T06:25:44;0.80;;;0.30;;
57889;SDS011;43707;50.184;18.966;2023-03-31T06:28:10;1.90;;;0.20;;
57889;SDS011;43707;50.184;18.966;2023-03-31T06:30:35;7.90;;;0.30;;
57889;SDS011;43707;50.184;18.966;2023-03-31T06:33:01;1.70;;;0.40;;
57889;SDS011;43707;50.184;18.966;2023-03-31T06:35:26;0.40;;;0.30;;
57889;SDS011;43707;50.184;18.966;2023-03-31T06:37:51;0.20;;;0.20;;
57889;SDS011;43707;50.184;18.966;2023-03-31T06:40:17;0.30;;;0.20;;
57889;SDS011;43707;50.184;18.966;2023-03-31T06:42:43;0.20;;;0.10;;
57889;SDS011;43707;50.184;18.966;2023-03-31T06:45:08;0.40;;;0.30;;
57889;SDS011;43707;50.184;18.966;2023-03-31T06:47:34;1.40;;;0.30;;
57889;SDS011;43707;50.184;18.966;2023-03-31T06:50:01;0.20;;;0.20;;
57889;SDS011;43707;50.184;18.966;2023-03-31T06:52:27;0.90;;;0.30;;
57889;SDS011;43707;50.184;18.966;2023-03-31T06:54:52;0.30;;;0.20;;
57889;SDS011;43707;50.184;18.966;2023-03-31T06:57:18;0.50;;;0.20;;
57889;SDS011;43707;50.184;18.966;2023-03-31T06:59:44;0.30;;;0.20;;
57889;SDS011;43707;50.184;18.966;2023-03-31T07:02:10;0.80;;;0.40;;
57889;SDS011;43707;50.184;18.966;2023-03-31T07:04:35;0.70;;;0.30;;
57889;SDS011;43707;50.184;18.966;2023-03-31T07:07:01;0.50;;;0.50;;
57889;SDS011;43707;50.184;18.966;2023-03-31T07:09:26;2.70;;;0.30;;
57889;SDS011;43707;50.184;18.966;2023-03-31T07:11:51;0.70;;;0.30;;
57889;SDS011;43707;50.184;18.966;2023-03-31T07:14:17;0.30;;;0.20;;
57889;SDS011;43707;50.184;18.966;2023-03-31T07:16:42;0.50;;;0.20;;
57889;SDS011;43707;50.184;18.966;2023-03-31T07:19:08;0.10;;;0.10;;
57889;SDS011;43707;50.184;18.966;2023-03-31T07:21:35;5.80;;;0.20;;
57889;SDS011;43707;50.184;18.966;2023-03-31T07:24:01;0.60;;;0.30;;
57889;SDS011;43707;50.184;18.966;2023-03-31T07:26:27;0.50;;;0.20;;
57889;SDS011;43707;50.184;18.966;2023-03-31T07:28:52;0.20;;;0.20;;
57889;SDS011;43707;50.184;18.966;2023-03-31T07:31:20;0.20;;;0.20;;
57889;SDS011;43707;50.184;18.966;2023-03-31T07:33:46;0.20;;;0.20;;
57889;SDS011;43707;50.184;18.966;2023-03-31T07:36:11;0.10;;;0.10;;
57889;SDS011;43707;50.184;18.966;2023-03-31T07:38:37;0.10;;;0.10;;
57889;SDS011;43707;50.184;18.966;2023-03-31T07:41:02;0.70;;;0.20;;
57889;SDS011;43707;50.184;18.966;2023-03-31T07:43:27;0.20;;;0.10;;
57889;SDS011;43707;50.184;18.966;2023-03-31T07:45:53;0.40;;;0.20;;
57889;SDS011;43707;50.184;18.966;2023-03-31T07:48:18;0.10;;;0.10;;
57889;SDS011;43707;50.184;18.966;2023-03-31T07:50:44;0.10;;;0.10;;
57889;SDS011;43707;50.184;18.966;2023-03-31T07:53:09;0.30;;;0.10;;
57889;SDS011;43707;50.184;18.966;2023-03-31T07:55:34;0.10;;;0.10;;
57889;SDS011;43707;50.184;18.966;2023-03-31T07:58:00;0.00;;;0.00;;
57889;SDS011;43707;50.184;18.966;2023-03-31T08:00:25;0.10;;;0.10;;
57889;SDS011;43707;50.184;18.966;2023-03-31T08:02:51;0.10;;;0.10;;
57889;SDS011;43707;50.184;18.966;2023-03-31T08:05:18;0.20;;;0.20;;
57889;SDS011;43707;50.184;18.966;2023-03-31T08:07:45;0.10;;;0.10;;
57889;SDS011;43707;50.184;18.966;2023-03-31T08:10:14;0.10;;;0.10;;
57889;SDS011;43707;50.184;18.966;2023-03-31T08:12:42;0.10;;;0.10;;
57889;SDS011;43707;50.184;18.966;2023-03-31T08:15:07;0.00;;;0.00;;
57889;SDS011;43707;50.184;18.966;2023-03-31T08:17:33;0.40;;;0.10;;
57889;SDS011;43707;50.184;18.966;2023-03-31T08:19:58;0.10;;;0.10;;
57889;SDS011;43707;50.184;18.966;2023-03-31T08:22:24;0.10;;;0.10;;
57889;SDS011;43707;50.184;18.966;2023-03-31T08:24:50;0.10;;;0.10;;
57889;SDS011;43707;50.184;18.966;2023-03-31T08:27:16;0.20;;;0.20;;
57889;SDS011;43707;50.184;18.966;2023-03-31T08:29:41;0.00;;;0.00;;
57889;SDS011;43707;50.184;18.966;2023-03-31T08:32:07;0.10;;;0.10;;
57889;SDS011;43707;50.184;18.966;2023-03-31T08:34:32;0.10;;;0.00;;
57889;SDS011;43707;50.184;18.966;2023-03-31T08:36:58;0.10;;;0.10;;
57889;SDS011;43707;50.184;18.966;2023-03-31T08:39:23;0.20;;;0.20;;
57889;SDS011;43707;50.184;18.966;2023-03-31T08:42:06;1.80;;;0.10;;
57889;SDS011;43707;50.184;18.966;2023-03-31T08:44:37;0.20;;;0.20;;
57889;SDS011;43707;50.184;18.966;2023-03-31T08:47:23;0.10;;;0.10;;
57889;SDS011;43707;50.184;18.966;2023-03-31T08:49:55;0.60;;;0.10;;
57889;SDS011;43707;50.184;18.966;2023-03-31T08:52:28;0.00;;;0.00;;
57889;SDS011;43707;50.184;18.966;2023-03-31T08:54:58;0.10;;;0.10;;
57889;SDS011;43707;50.184;18.966;2023-03-31T08:57:24;0.10;;;0.00;;
57889;SDS011;43707;50.184;18.966;2023-03-31T08:59:53;0.40;;;0.10;;
57889;SDS011;43707;50.184;18.966;2023-03-31T09:18:37;0.20;;;0.10;;
57889;SDS011;43707;50.184;18.966;2023-03-31T09:26:29;0.20;;;0.20;;
57889;SDS011;43707;50.184;18.966;2023-03-31T09:28:59;0.50;;;0.10;;
57889;SDS011;43707;50.184;18.966;2023-03-31T09:31:26;0.20;;;0.20;;
57889;SDS011;43707;50.184;18.966;2023-03-31T09:33:53;0.10;;;0.10;;
57889;SDS011;43707;50.184;18.966;2023-03-31T09:36:24;1.60;;;0.10;;
57889;SDS011;43707;50.184;18.966;2023-03-31T09:38:49;1.80;;;0.10;;
57889;SDS011;43707;50.184;18.966;2023-03-31T09:41:15;0.20;;;0.20;;
57889;SDS011;43707;50.184;18.966;2023-03-31T09:43:42;12.10;;;1.30;;
57889;SDS011;43707;50.184;18.966;2023-03-31T09:46:32;0.20;;;0.10;;
57889;SDS011;43707;50.184;18.966;2023-03-31T09:51:32;0.40;;;0.10;;
57889;SDS011;43707;50.184;18.966;2023-03-31T09:56:59;0.10;;;0.10;;
57889;SDS011;43707;50.184;18.966;2023-03-31T09:59:31;0.10;;;0.10;;
57889;SDS011;43707;50.184;18.966;2023-03-31T10:02:02;0.00;;;0.00;;
57889;SDS011;43707;50.184;18.966;2023-03-31T10:06:57;0.00;;;0.00;;
57889;SDS011;43707;50.184;18.966;2023-03-31T10:09:24;0.10;;;0.10;;
57889;SDS011;43707;50.184;18.966;2023-03-31T10:14:44;0.00;;;0.00;;
57889;SDS011;43707;50.184;18.966;2023-03-31T10:17:15;0.20;;;0.10;;
57889;SDS011;43707;50.184;18.966;2023-03-31T10:19:58;0.10;;;0.10;;
57889;SDS011;43707;50.184;18.966;2023-03-31T10:22:28;1.10;;;0.20;;
57889;SDS011;43707;50.184;18.966;2023-03-31T10:25:07;0.10;;;0.10;;
57889;SDS011;43707;50.184;18.966;2023-03-31T10:27:48;0.20;;;0.10;;
57889;SDS011;43707;50.184;18.966;2023-03-31T10:30:17;0.20;;;0.10;;
57889;SDS011;43707;50.184;18.966;2023-03-31T10:32:46;0.10;;;0.10;;
57889;SDS011;43707;50.184;18.966;2023-03-31T10:35:15;0.00;;;0.00;;
57889;SDS011;43707;50.184;18.966;2023-03-31T10:37:47;0.00;;;0.00;;
57889;SDS011;43707;50.184;18.966;2023-03-31T10:40:14;0.00;;;0.00;;
57889;SDS011;43707;50.184;18.966;2023-03-31T10:42:44;0.10;;;0.10;;
57889;SDS011;43707;50.184;18.966;2023-03-31T10:47:54;0.10;;;0.10;;
57889;SDS011;43707;50.184;18.966;2023-03-31T10:50:31;0.10;;;0.10;;
57889;SDS011;43707;50.184;18.966;2023-03-31T10:53:06;0.00;;;0.00;;
57889;SDS011;43707;50.184;18.966;2023-03-31T10:55:38;0.10;;;0.10;;
57889;SDS011;43707;50.184;18.966;2023-03-31T10:58:13;0.00;;;0.00;;
57889;SDS011;43707;50.184;18.966;2023-03-31T11:03:48;0.30;;;0.10;;
57889;SDS011;43707;50.184;18.966;2023-03-31T11:12:35;0.10;;;0.10;;
57889;SDS011;43707;50.184;18.966;2023-03-31T11:15:21;0.10;;;0.10;;
57889;SDS011;43707;50.184;18.966;2023-03-31T11:34:28;0.30;;;0.20;;
57889;SDS011;43707;50.184;18.966;2023-03-31T11:42:01;0.50;;;0.30;;
57889;SDS011;43707;50.184;18.966;2023-03-31T11:44:34;0.20;;;0.10;;
57889;SDS011;43707;50.184;18.966;2023-03-31T11:47:06;0.20;;;0.20;;
57889;SDS011;43707;50.184;18.966;2023-03-31T11:49:38;0.30;;;0.20;;
57889;SDS011;43707;50.184;18.966;2023-03-31T11:57:18;0.20;;;0.10;;
57889;SDS011;43707;50.184;18.966;2023-03-31T11:59:47;0.20;;;0.10;;
57889;SDS011;43707;50.184;18.966;2023-03-31T12:02:23;0.10;;;0.10;;
57889;SDS011;43707;50.184;18.966;2023-03-31T12:04:55;0.10;;;0.10;;
57889;SDS011;43707;50.184;18.966;2023-03-31T12:07:29;0.40;;;0.30;;
57889;SDS011;43707;50.184;18.966;2023-03-31T12:12:42;0.10;;;0.10;;
57889;SDS011;43707;50.184;18.966;2023-03-31T12:18:07;0.20;;;0.20;;
57889;SDS011;43707;50.184;18.966;2023-03-31T12:20:41;0.50;;;0.10;;
57889;SDS011;43707;50.184;18.966;2023-03-31T12:23:11;0.00;;;0.00;;
57889;SDS011;43707;50.184;18.966;2023-03-31T12:26:02;0.30;;;0.10;;
57889;SDS011;43707;50.184;18.966;2023-03-31T12:28:31;0.10;;;0.10;;
57889;SDS011;43707;50.184;18.966;2023-03-31T12:30:59;0.20;;;0.10;;
57889;SDS011;43707;50.184;18.966;2023-03-31T12:44:02;0.10;;;0.10;;
57889;SDS011;43707;50.184;18.966;2023-03-31T12:46:39;0.40;;;0.20;;
57889;SDS011;43707;50.184;18.966;2023-03-31T12:57:41;0.10;;;0.10;;
57889;SDS011;43707;50.184;18.966;2023-03-31T13:02:34;0.20;;;0.20;;
57889;SDS011;43707;50.184;18.966;2023-03-31T13:05:04;0.10;;;0.10;;
57889;SDS011;43707;50.184;18.966;2023-03-31T13:08:00;0.70;;;0.20;;
57889;SDS011;43707;50.184;18.966;2023-03-31T13:10:29;0.20;;;0.10;;
57889;SDS011;43707;50.184;18.966;2023-03-31T13:15:24;0.10;;;0.10;;
57889;SDS011;43707;50.184;18.966;2023-03-31T13:18:14;0.20;;;0.20;;
57889;SDS011;43707;50.184;18.966;2023-03-31T13:20:42;0.20;;;0.10;;
57889;SDS011;43707;50.184;18.966;2023-03-31T13:30:47;0.30;;;0.10;;
57889;SDS011;43707;50.184;18.966;2023-03-31T13:44:37;0.10;;;0.10;;
57889;SDS011;43707;50.184;18.966;2023-03-31T13:52:52;6.60;;;0.30;;
57889;SDS011;43707;50.184;18.966;2023-03-31T13:58:24;0.10;;;0.10;;
57889;SDS011;43707;50.184;18.966;2023-03-31T14:01:27;0.50;;;0.10;;
57889;SDS011;43707;50.184;18.966;2023-03-31T14:04:05;0.20;;;0.10;;
57889;SDS011;43707;50.184;18.966;2023-03-31T14:06:46;0.50;;;0.30;;
57889;SDS011;43707;50.184;18.966;2023-03-31T14:09:30;0.30;;;0.20;;
57889;SDS011;43707;50.184;18.966;2023-03-31T14:11:58;0.30;;;0.20;;
57889;SDS011;43707;50.184;18.966;2023-03-31T14:14:24;0.20;;;0.20;;
57889;SDS011;43707;50.184;18.966;2023-03-31T14:16:50;0.20;;;0.20;;
57889;SDS011;43707;50.184;18.966;2023-03-31T14:24:50;0.20;;;0.20;;
57889;SDS011;43707;50.184;18.966;2023-03-31T14:30:39;0.40;;;0.20;;
57889;SDS011;43707;50.184;18.966;2023-03-31T14:38:26;0.10;;;0.10;;
57889;SDS011;43707;50.184;18.966;2023-03-31T14:40:53;0.20;;;0.20;;
57889;SDS011;43707;50.184;18.966;2023-03-31T14:43:25;0.30;;;0.20;;
57889;SDS011;43707;50.184;18.966;2023-03-31T14:48:35;0.60;;;0.40;;
57889;SDS011;43707;50.184;18.966;2023-03-31T14:51:09;1.00;;;0.70;;
57889;SDS011;43707;50.184;18.966;2023-03-31T14:53:35;1.50;;;1.00;;
57889;SDS011;43707;50.184;18.966;2023-03-31T14:56:04;1.20;;;1.10;;
57889;SDS011;43707;50.184;18.966;2023-03-31T14:58:33;1.70;;;1.30;;
57889;SDS011;43707;50.184;18.966;2023-03-31T15:01:01;1.60;;;1.20;;
57889;SDS011;43707;50.184;18.966;2023-03-31T15:03:30;1.30;;;1.10;;
57889;SDS011;43707;50.184;18.966;2023-03-31T15:05:57;1.70;;;1.30;;
57889;SDS011;43707;50.184;18.966;2023-03-31T15:08:23;1.90;;;1.50;;
57889;SDS011;43707;50.184;18.966;2023-03-31T15:10:53;2.10;;;1.60;;
57889;SDS011;43707;50.184;18.966;2023-03-31T15:13:33;1.60;;;1.40;;
57889;SDS011;43707;50.184;18.966;2023-03-31T15:19:10;1.70;;;1.40;;
57889;SDS011;43707;50.184;18.966;2023-03-31T15:21:38;1.30;;;1.20;;
57889;SDS011;43707;50.184;18.966;2023-03-31T15:24:04;2.50;;;1.60;;
57889;SDS011;43707;50.184;18.966;2023-03-31T15:26:53;2.40;;;1.40;;
57889;SDS011;43707;50.184;18.966;2023-03-31T15:29:44;1.80;;;1.20;;
57889;SDS011;43707;50.184;18.966;2023-03-31T15:32:21;2.40;;;1.50;;
57889;SDS011;43707;50.184;18.966;2023-03-31T15:34:52;1.50;;;1.40;;
57889;SDS011;43707;50.184;18.966;2023-03-31T15:37:23;1.70;;;1.30;;
57889;SDS011;43707;50.184;18.966;2023-03-31T15:39:53;1.90;;;1.20;;
57889;SDS011;43707;50.184;18.966;2023-03-31T15:42:19;1.10;;;1.00;;
57889;SDS011;43707;50.184;18.966;2023-03-31T15:44:46;1.60;;;0.80;;
57889;SDS011;43707;50.184;18.966;2023-03-31T15:47:18;1.50;;;1.10;;
57889;SDS011;43707;50.184;18.966;2023-03-31T15:52:33;1.00;;;0.90;;
57889;SDS011;43707;50.184;18.966;2023-03-31T15:55:00;1.10;;;0.90;;
57889;SDS011;43707;50.184;18.966;2023-03-31T15:57:41;1.20;;;0.80;;
57889;SDS011;43707;50.184;18.966;2023-03-31T16:00:14;1.10;;;0.90;;
57889;SDS011;43707;50.184;18.966;2023-03-31T16:03:15;1.50;;;0.80;;
57889;SDS011;43707;50.184;18.966;2023-03-31T16:06:00;1.00;;;0.90;;
57889;SDS011;43707;50.184;18.966;2023-03-31T16:08:31;1.60;;;0.80;;
57889;SDS011;43707;50.184;18.966;2023-03-31T16:13:32;0.90;;;0.60;;
57889;SDS011;43707;50.184;18.966;2023-03-31T16:15:58;1.00;;;0.80;;
57889;SDS011;43707;50.184;18.966;2023-03-31T16:18:34;1.40;;;1.00;;
57889;SDS011;43707;50.184;18.966;2023-03-31T16:21:02;1.10;;;0.70;;
57889;SDS011;43707;50.184;18.966;2023-03-31T16:23:38;0.80;;;0.70;;
57889;SDS011;43707;50.184;18.966;2023-03-31T16:26:05;1.10;;;0.70;;
57889;SDS011;43707;50.184;18.966;2023-03-31T16:28:35;0.60;;;0.50;;
57889;SDS011;43707;50.184;18.966;2023-03-31T16:31:02;1.50;;;0.60;;
57889;SDS011;43707;50.184;18.966;2023-03-31T16:33:29;1.40;;;0.80;;
57889;SDS011;43707;50.184;18.966;2023-03-31T16:35:56;1.00;;;0.90;;
57889;SDS011;43707;50.184;18.966;2023-03-31T16:38:23;1.10;;;1.00;;
57889;SDS011;43707;50.184;18.966;2023-03-31T16:40:51;0.90;;;0.80;;
57889;SDS011;43707;50.184;18.966;2023-03-31T16:43:19;1.20;;;0.90;;
57889;SDS011;43707;50.184;18.966;2023-03-31T16:45:50;1.20;;;0.90;;
57889;SDS011;43707;50.184;18.966;2023-03-31T16:48:18;1.40;;;1.00;;
57889;SDS011;43707;50.184;18.966;2023-03-31T16:50:50;1.80;;;1.00;;
57889;SDS011;43707;50.184;18.966;2023-03-31T16:53:19;1.10;;;1.00;;
57889;SDS011;43707;50.184;18.966;2023-03-31T16:55:46;1.40;;;1.20;;
57889;SDS011;43707;50.184;18.966;2023-03-31T16:58:12;2.70;;;1.20;;
57889;SDS011;43707;50.184;18.966;2023-03-31T17:00:37;2.00;;;1.10;;
57889;SDS011;43707;50.184;18.966;2023-03-31T17:03:05;3.00;;;2.20;;
57889;SDS011;43707;50.184;18.966;2023-03-31T17:05:31;2.60;;;2.10;;
57889;SDS011;43707;50.184;18.966;2023-03-31T17:07:58;4.00;;;3.10;;
57889;SDS011;43707;50.184;18.966;2023-03-31T17:10:24;5.40;;;2.90;;
57889;SDS011;43707;50.184;18.966;2023-03-31T17:12:49;4.40;;;3.00;;
57889;SDS011;43707;50.184;18.966;2023-03-31T17:15:15;5.60;;;3.70;;
57889;SDS011;43707;50.184;18.966;2023-03-31T17:17:40;4.90;;;3.60;;
57889;SDS011;43707;50.184;18.966;2023-03-31T17:20:06;3.90;;;3.10;;
57889;SDS011;43707;50.184;18.966;2023-03-31T17:22:33;4.80;;;3.40;;
57889;SDS011;43707;50.184;18.966;2023-03-31T17:24:59;3.50;;;2.80;;
57889;SDS011;43707;50.184;18.966;2023-03-31T17:27:25;3.80;;;2.80;;
57889;SDS011;43707;50.184;18.966;2023-03-31T17:29:51;4.90;;;3.10;;
57889;SDS011;43707;50.184;18.966;2023-03-31T17:32:17;5.20;;;3.00;;
57889;SDS011;43707;50.184;18.966;2023-03-31T17:34:43;4.00;;;2.60;;
57889;SDS011;43707;50.184;18.966;2023-03-31T17:37:09;4.00;;;3.10;;
57889;SDS011;43707;50.184;18.966;2023-03-31T17:39:34;3.70;;;3.20;;
57889;SDS011;43707;50.184;18.966;2023-03-31T17:42:00;3.90;;;3.00;;
57889;SDS011;43707;50.184;18.966;2023-03-31T17:44:27;3.40;;;2.80;;
57889;SDS011;43707;50.184;18.966;2023-03-31T17:46:53;4.10;;;2.50;;
57889;SDS011;43707;50.184;18.966;2023-03-31T17:49:19;3.90;;;3.40;;
57889;SDS011;43707;50.184;18.966;2023-03-31T17:51:45;3.80;;;2.40;;
57889;SDS011;43707;50.184;18.966;2023-03-31T17:54:10;3.20;;;2.20;;
57889;SDS011;43707;50.184;18.966;2023-03-31T17:56:36;2.70;;;2.00;;
57889;SDS011;43707;50.184;18.966;2023-03-31T17:59:02;2.00;;;1.30;;
57889;SDS011;43707;50.184;18.966;2023-03-31T18:01:28;1.70;;;1.30;;
57889;SDS011;43707;50.184;18.966;2023-03-31T18:03:54;1.80;;;1.30;;
57889;SDS011;43707;50.184;18.966;2023-03-31T18:06:20;1.50;;;1.10;;
57889;SDS011;43707;50.184;18.966;2023-03-31T18:08:46;1.60;;;1.20;;
57889;SDS011;43707;50.184;18.966;2023-03-31T18:11:12;2.10;;;1.30;;
57889;SDS011;43707;50.184;18.966;2023-03-31T18:13:38;1.40;;;1.10;;
57889;SDS011;43707;50.184;18.966;2023-03-31T18:16:04;1.00;;;0.90;;
57889;SDS011;43707;50.184;18.966;2023-03-31T18:18:33;1.30;;;0.90;;
57889;SDS011;43707;50.184;18.966;2023-03-31T18:21:05;1.60;;;0.80;;
57889;SDS011;43707;50.184;18.966;2023-03-31T18:23:32;1.70;;;1.20;;
57889;SDS011;43707;50.184;18.966;2023-03-31T18:25:59;1.30;;;1.00;;
57889;SDS011;43707;50.184;18.966;2023-03-31T18:28:25;2.20;;;1.10;;
57889;SDS011;43707;50.184;18.966;2023-03-31T18:30:51;1.10;;;1.00;;
57889;SDS011;43707;50.184;18.966;2023-03-31T18:33:17;1.20;;;1.00;;
57889;SDS011;43707;50.184;18.966;2023-03-31T18:35:44;1.10;;;0.90;;
57889;SDS011;43707;50.184;18.966;2023-03-31T18:38:11;1.40;;;1.00;;
57889;SDS011;43707;50.184;18.966;2023-03-31T18:40:37;2.00;;;1.10;;
57889;SDS011;43707;50.184;18.966;2023-03-31T18:43:03;1.80;;;0.90;;
57889;SDS011;43707;50.184;18.966;2023-03-31T18:45:29;1.30;;;0.90;;
57889;SDS011;43707;50.184;18.966;2023-03-31T18:47:56;1.50;;;0.90;;
57889;SDS011;43707;50.184;18.966;2023-03-31T18:50:21;1.70;;;0.90;;
57889;SDS011;43707;50.184;18.966;2023-03-31T18:52:48;1.30;;;0.90;;
57889;SDS011;43707;50.184;18.966;2023-03-31T18:55:17;2.00;;;1.30;;
57889;SDS011;43707;50.184;18.966;2023-03-31T18:57:42;1.50;;;1.10;;
57889;SDS011;43707;50.184;18.966;2023-03-31T19:00:08;2.60;;;1.50;;
57889;SDS011;43707;50.184;18.966;2023-03-31T19:02:34;3.70;;;1.50;;
57889;SDS011;43707;50.184;18.966;2023-03-31T19:05:00;2.30;;;1.70;;
57889;SDS011;43707;50.184;18.966;2023-03-31T19:07:26;2.90;;;1.90;;
57889;SDS011;43707;50.184;18.966;2023-03-31T19:09:51;3.60;;;1.90;;
57889;SDS011;43707;50.184;18.966;2023-03-31T19:12:17;3.20;;;1.80;;
57889;SDS011;43707;50.184;18.966;2023-03-31T19:14:42;5.40;;;2.80;;
57889;SDS011;43707;50.184;18.966;2023-03-31T19:17:08;3.30;;;2.10;;
57889;SDS011;43707;50.184;18.966;2023-03-31T19:19:33;7.20;;;2.40;;
57889;SDS011;43707;50.184;18.966;2023-03-31T19:21:59;3.00;;;2.30;;
57889;SDS011;43707;50.184;18.966;2023-03-31T19:24:25;3.60;;;2.20;;
57889;SDS011;43707;50.184;18.966;2023-03-31T19:26:50;3.10;;;2.50;;
57889;SDS011;43707;50.184;18.966;2023-03-31T19:29:16;7.90;;;3.50;;
57889;SDS011;43707;50.184;18.966;2023-03-31T19:31:41;6.20;;;4.20;;
57889;SDS011;43707;50.184;18.966;2023-03-31T19:34:09;5.40;;;3.70;;
57889;SDS011;43707;50.184;18.966;2023-03-31T19:36:35;5.50;;;4.60;;
57889;SDS011;43707;50.184;18.966;2023-03-31T19:39:02;5.90;;;4.80;;
57889;SDS011;43707;50.184;18.966;2023-03-31T19:41:30;5.30;;;4.10;;
57889;SDS011;43707;50.184;18.966;2023-03-31T19:43:56;4.70;;;2.90;;
57889;SDS011;43707;50.184;18.966;2023-03-31T19:46:21;6.60;;;4.70;;
57889;SDS011;43707;50.184;18.966;2023-03-31T19:48:46;6.70;;;4.80;;
57889;SDS011;43707;50.184;18.966;2023-03-31T19:51:12;5.40;;;4.60;;
57889;SDS011;43707;50.184;18.966;2023-03-31T19:53:37;7.60;;;5.30;;
57889;SDS011;43707;50.184;18.966;2023-03-31T19:56:04;6.90;;;5.40;;
57889;SDS011;43707;50.184;18.966;2023-03-31T19:58:34;6.30;;;4.30;;
57889;SDS011;43707;50.184;18.966;2023-03-31T20:01:01;5.20;;;4.40;;
57889;SDS011;43707;50.184;18.966;2023-03-31T20:03:27;6.10;;;4.30;;
57889;SDS011;43707;50.184;18.966;2023-03-31T20:06:06;4.50;;;3.50;;
57889;SDS011;43707;50.184;18.966;2023-03-31T20:08:36;3.80;;;3.10;;
57889;SDS011;43707;50.184;18.966;2023-03-31T20:11:05;3.00;;;2.30;;
57889;SDS011;43707;50.184;18.966;2023-03-31T20:13:31;2.90;;;2.60;;
57889;SDS011;43707;50.184;18.966;2023-03-31T20:16:07;2.80;;;2.20;;
57889;SDS011;43707;50.184;18.966;2023-03-31T20:18:34;3.00;;;1.60;;
57889;SDS011;43707;50.184;18.966;2023-03-31T20:21:07;4.90;;;1.90;;
57889;SDS011;43707;50.184;18.966;2023-03-31T20:23:35;2.80;;;2.00;;
57889;SDS011;43707;50.184;18.966;2023-03-31T20:26:06;1.80;;;1.20;;
57889;SDS011;43707;50.184;18.966;2023-03-31T20:28:33;2.10;;;1.40;;
57889;SDS011;43707;50.184;18.966;2023-03-31T20:31:04;1.30;;;1.00;;